Data for 01/20/2015

Time Sea-Level Adjusted Pressure Absolute Pressure Temperature Relative Humidity Dew Point   
(mb) (inHg) (mb) (inHg) (C) (F) (%) (C) (F)
00:05 1022 30.18 851 25.13 -0.8 30.5 74 -4.9 23.3
00:10 1022 30.18 851 25.13 -0.8 30.5 74 -4.8 23.3
00:15 1022 30.18 852 25.16 -0.8 30.5 74 -4.9 23.2
00:20 1022 30.18 852 25.16 -0.9 30.4 74 -4.9 23.1
00:25 1022 30.18 852 25.16 -1 30.2 74 -5 22.9
00:30 1022 30.18 851 25.13 -1.1 30.1 75 -5 23.1
00:35 1022 30.18 851 25.13 -1.1 30 75 -5 23
00:40 1022 30.18 851 25.13 -1.3 29.7 75 -5.1 22.8
00:45 1022 30.18 851 25.13 -1.4 29.5 73 -5.7 21.7
00:50 1022 30.18 851 25.13 -1.1 30.1 71 -5.7 21.8
00:55 1022 30.18 851 25.13 -1 30.2 71 -5.6 21.9
01:00 1022 30.18 851 25.13 -1 30.2 71 -5.5 22
01:05 1022 30.18 851 25.13 -1 30.2 70 -5.8 21.5
01:10 1022 30.18 852 25.16 -0.9 30.4 68 -6 21.2
01:15 1022 30.18 852 25.16 -0.7 30.7 68 -6 21.2
01:20 1022 30.18 852 25.16 -0.7 30.8 68 -5.9 21.5
01:25 1022 30.18 851 25.13 -0.8 30.6 67 -6.1 21
01:30 1022 30.18 851 25.13 -0.7 30.7 67 -6 21.1
01:35 1022 30.18 851 25.13 -0.7 30.7 65 -6.5 20.3
01:40 1022 30.18 851 25.13 -0.8 30.5 65 -6.5 20.3
01:45 1022 30.18 851 25.13 -0.9 30.4 66 -6.6 20.2
01:50 1022 30.18 851 25.13 -0.9 30.3 66 -6.6 20.2
01:55 1022 30.18 851 25.13 -1 30.3 66 -6.6 20.2
02:00 1022 30.18 851 25.13 -1.1 30.1 65 -6.8 19.8
02:05 1022 30.18 851 25.13 -1 30.1 63 -7.1 19.2
02:10 1022 30.18 851 25.13 -0.9 30.3 62 -7.2 19
02:15 1022 30.18 851 25.13 -0.8 30.5 62 -7.2 19
02:20 1022 30.18 851 25.13 -0.9 30.5 62 -7.2 19
02:25 1022 30.18 851 25.13 -0.9 30.4 62 -7.2 19
02:30 1022 30.18 851 25.13 -0.9 30.4 66 -6.5 20.3
02:35 1022 30.18 851 25.13 -1.2 29.9 67 -6.5 20.3
02:40 1022 30.18 851 25.13 -1.2 29.9 61 -7.6 18.3
02:45 1022 30.18 851 25.13 -0.7 30.7 62 -7.1 19.3
02:50 1022 30.18 852 25.16 -0.7 30.7 62 -7.1 19.2
02:55 1022 30.18 852 25.16 -0.7 30.8 63 -6.8 19.7
03:00 1022 30.18 852 25.16 -0.8 30.6 65 -6.6 20.1
03:05 1023 30.21 852 25.16 -0.8 30.5 66 -6.5 20.3
03:10 1023 30.21 852 25.16 -0.8 30.5 64 -6.7 19.9
03:15 1023 30.21 852 25.16 -0.8 30.6 65 -6.5 20.3
03:20 1023 30.21 852 25.16 -0.9 30.3 66 -6.5 20.2
03:25 1023 30.21 852 25.16 -1 30.2 65 -6.7 20
03:30 1023 30.21 852 25.16 -1 30.1 68 -6.3 20.6
03:35 1023 30.21 852 25.16 -1.1 30.1 67 -6.4 20.4
03:40 1023 30.21 852 25.16 -1.2 29.9 68 -6.4 20.5
03:45 1023 30.21 852 25.16 -1.3 29.6 68 -6.5 20.3
03:50 1023 30.21 852 25.16 -1.4 29.5 68 -6.5 20.3
03:55 1023 30.21 852 25.16 -1.4 29.5 68 -6.5 20.3
04:00 1023 30.21 852 25.16 -1.5 29.3 69 -6.4 20.5
04:05 1023 30.21 852 25.16 -1.5 29.2 70 -6.3 20.6
04:10 1023 30.21 852 25.16 -1.6 29.2 70 -6.4 20.5
04:15 1023 30.21 852 25.16 -1.6 29.2 70 -6.3 20.6
04:20 1023 30.21 852 25.16 -1.6 29.2 71 -6.1 21
04:25 1023 30.21 852 25.16 -1.6 29.1 71 -6.1 21
04:30 1023 30.21 852 25.16 -1.7 29 72 -6.1 21.1
04:35 1023 30.21 852 25.16 -1.7 28.9 72 -6.1 21
04:40 1023 30.21 852 25.16 -1.8 28.8 73 -6.1 21.1
04:45 1023 30.21 852 25.16 -1.8 28.7 73 -6 21.2
04:50 1023 30.21 852 25.16 -1.9 28.6 74 -5.9 21.3
04:55 1023 30.21 852 25.16 -1.9 28.6 74 -5.9 21.4
05:00 1023 30.21 852 25.16 -1.9 28.6 75 -5.8 21.6
05:05 1023 30.21 852 25.16 -2 28.5 75 -5.8 21.5
05:10 1023 30.21 852 25.16 -2.1 28.2 76 -5.8 21.5
05:15 1023 30.21 852 25.16 -1.9 28.6 76 -5.6 21.9
05:20 1023 30.21 852 25.16 -1.8 28.8 77 -5.2 22.6
05:25 1023 30.21 852 25.16 -2 28.4 81 -4.8 23.4
05:30 1023 30.21 852 25.16 -2.5 27.5 86 -4.5 23.9
05:35 1023 30.21 852 25.16 -2.7 27.1 89 -4.3 24.2
05:40 1023 30.21 852 25.16 -2.9 26.8 90 -4.3 24.2
05:45 1023 30.21 853 25.19 -2.9 26.8 90 -4.3 24.2
05:50 1023 30.21 853 25.19 -2.9 26.7 91 -4.2 24.5
05:55 1023 30.21 853 25.19 -2.9 26.8 91 -4.1 24.6
06:00 1023 30.21 852 25.16 -2.9 26.8 89 -4.5 23.9
06:05 1023 30.21 852 25.16 -2.7 27.1 85 -4.9 23.2
06:10 1023 30.21 852 25.16 -2.5 27.4 81 -5.4 22.3
06:15 1023 30.21 852 25.16 -2.4 27.7 81 -5.2 22.7
06:20 1023 30.21 853 25.19 -2.3 27.8 82 -5 23
06:25 1023 30.21 853 25.19 -2.5 27.5 81 -5.4 22.4
06:30 1023 30.21 852 25.16 -2.5 27.5 79 -5.7 21.8
06:35 1023 30.21 852 25.16 -2.3 27.8 79 -5.5 22.1
06:40 1023 30.21 853 25.19 -2.2 28 79 -5.4 22.3
06:45 1023 30.21 853 25.19 -2.3 27.9 79 -5.4 22.2
06:50 1023 30.21 853 25.19 -2.4 27.7 79 -5.6 21.9
06:55 1023 30.21 853 25.19 -2.3 27.8 78 -5.7 21.8
07:00 1023 30.21 853 25.19 -2.3 27.9 78 -5.6 21.9
07:05 1023 30.21 853 25.19 -2.3 27.9 77 -5.8 21.6
07:10 1023 30.21 853 25.19 -2.2 28.1 77 -5.6 21.8
07:15 1024 30.24 853 25.19 -2.2 28.1 76 -5.9 21.3
07:20 1024 30.24 853 25.19 -2.2 28.1 75 -6 21.3
07:25 1024 30.24 853 25.19 -2.2 28.1 74 -6.3 20.7
07:30 1024 30.24 853 25.19 -2.1 28.2 74 -6.1 21
07:35 1024 30.24 853 25.19 -2.2 28.1 75 -6 21.2
07:40 1024 30.24 853 25.19 -2.2 28 75 -6.1 21.1
07:45 1024 30.24 853 25.19 -2.2 28 75 -6.1 21.1
07:50 1024 30.24 853 25.19 -2.2 28 74 -6.3 20.7
07:55 1024 30.24 853 25.19 -2.2 28.1 74 -6.3 20.7
08:00 1024 30.24 853 25.19 -2.2 28.1 73 -6.4 20.5
08:05 1024 30.24 853 25.19 -2.2 28.1 72 -6.5 20.3
08:10 1024 30.24 853 25.19 -2.3 27.9 73 -6.5 20.2
08:15 1024 30.24 853 25.19 -2.3 27.9 71 -6.8 19.7
08:20 1024 30.24 853 25.19 -2.3 27.9 71 -6.9 19.5
08:25 1024 30.24 853 25.19 -2.3 27.8 70 -7.1 19.2
08:30 1024 30.24 853 25.19 -2.3 27.9 69 -7.3 18.9
08:35 1024 30.24 853 25.19 -2.2 28.1 72 -6.5 20.4
08:40 1024 30.24 853 25.19 -2.6 27.4 76 -6.2 20.8
08:45 1024 30.24 853 25.19 -2.8 26.9 77 -6.4 20.6
08:50 1024 30.24 853 25.19 -2.8 27 76 -6.4 20.4
08:55 1024 30.24 853 25.19 -2.8 26.9 77 -6.4 20.6
09:00 1024 30.24 853 25.19 -2.8 26.9 77 -6.3 20.7
09:05 1024 30.24 853 25.19 -2.9 26.8 77 -6.4 20.4
09:10 1024 30.24 853 25.19 -2.8 26.9 77 -6.3 20.6
09:15 1024 30.24 853 25.19 -2.5 27.5 73 -6.7 20
09:20 1024 30.24 854 25.22 -2.2 28 73 -6.4 20.5
09:25 1024 30.24 854 25.22 -2.6 27.4 77 -6.1 21
09:30 1024 30.24 854 25.22 -2.8 27 77 -6.2 20.8
09:35 1024 30.24 854 25.22 -2.8 26.9 76 -6.5 20.3
09:40 1024 30.24 854 25.22 -2.8 27 74 -6.8 19.7
09:45 1024 30.24 854 25.22 -2.4 27.7 71 -7 19.4
09:50 1025 30.27 854 25.22 -2.1 28.2 68 -7.3 18.9
09:55 1025 30.27 854 25.22 -1.9 28.6 67 -7.3 18.9
10:00 1025 30.27 854 25.22 -1.8 28.8 66 -7.4 18.7
10:05 1025 30.27 854 25.22 -1.7 29 67 -7.1 19.2
10:10 1025 30.27 854 25.22 -1.7 29 66 -7.3 18.9
10:15 1025 30.27 854 25.22 -1.6 29.1 67 -7 19.5
10:20 1025 30.27 854 25.22 -1.7 29 67 -7 19.4
10:25 1025 30.27 854 25.22 -1.9 28.6 69 -6.8 19.7
10:30 1025 30.27 854 25.22 -1.8 28.7 66 -7.4 18.8
10:35 1025 30.27 854 25.22 -1.9 28.6 67 -7.2 19.1
10:40 1025 30.27 854 25.22 -1.7 29 65 -7.5 18.6
10:45 1025 30.27 854 25.22 -1.5 29.3 64 -7.4 18.7
10:50 1025 30.27 854 25.22 -1.4 29.5 64 -7.4 18.8
10:55 1025 30.27 854 25.22 -1.1 30 63 -7.2 19
11:00 1025 30.27 854 25.22 -0.9 30.5 62 -7.2 19
11:05 1025 30.27 854 25.22 -0.7 30.7 60 -7.5 18.4
11:10 1025 30.27 855 25.25 -1 30.3 63 -7.2 19.1
11:15 1025 30.27 855 25.25 -0.9 30.4 62 -7.4 18.8
11:20 1025 30.27 855 25.25 -0.9 30.5 61 -7.5 18.5
11:25 1025 30.27 855 25.25 -1 30.1 63 -7.2 19
11:30 1025 30.27 855 25.25 -1 30.3 61 -7.5 18.5
11:35 1026 30.3 855 25.25 -0.8 30.5 62 -7.2 19
11:40 1026 30.3 855 25.25 -0.8 30.6 59 -7.8 17.9
11:45 1026 30.3 855 25.25 -0.9 30.3 59 -8 17.7
11:50 1026 30.3 855 25.25 -0.8 30.5 58 -8 17.6
11:55 1026 30.3 855 25.25 -0.7 30.7 58 -7.9 17.7
12:00 1026 30.3 855 25.25 -0.9 30.4 58 -8.1 17.3
12:05 1026 30.3 855 25.25 -1 30.3 58 -8.2 17.2
12:10 1026 30.3 855 25.25 -0.7 30.7 56 -8.4 16.9
12:15 1026 30.3 855 25.25 -0.7 30.8 55 -8.6 16.6
12:20 1025 30.27 855 25.25 -0.6 30.9 56 -8.4 16.9
12:25 1025 30.27 855 25.25 -0.4 31.3 55 -8.5 16.8
12:30 1025 30.27 855 25.25 -0.4 31.3 55 -8.3 17.1
12:35 1025 30.27 855 25.25 -0.3 31.4 54 -8.6 16.6
12:40 1025 30.27 855 25.25 -0.1 31.8 52 -8.8 16.1
12:45 1025 30.27 854 25.22 0.2 32.4 52 -8.5 16.8
12:50 1025 30.27 854 25.22 0.3 32.6 52 -8.4 16.9
12:55 1025 30.27 854 25.22 0.7 33.2 50 -8.6 16.6
13:00 1025 30.27 854 25.22 0.8 33.4 50 -8.5 16.8
13:05 1025 30.27 854 25.22 0.8 33.5 50 -8.6 16.6
13:10 1025 30.27 854 25.22 1 33.9 48 -8.6 16.4
13:15 1025 30.27 854 25.22 1.3 34.3 49 -8.2 17.3
13:20 1025 30.27 854 25.22 1.4 34.5 48 -8.6 16.6
13:25 1025 30.27 854 25.22 1.1 34 48 -8.6 16.5
13:30 1025 30.27 854 25.22 1.1 34 48 -8.8 16.1
13:35 1025 30.27 854 25.22 1.2 34.1 47 -8.8 16.2
13:40 1025 30.27 854 25.22 0.9 33.7 48 -8.8 16.2
13:45 1025 30.27 854 25.22 0.8 33.5 45 -9.7 14.5
13:50 1025 30.27 854 25.22 1 33.9 45 -9.6 14.7
13:55 1025 30.27 854 25.22 1.5 34.7 44 -9.5 14.9
14:00 1024 30.24 854 25.22 1.4 34.6 46 -9.1 15.7
14:05 1024 30.24 854 25.22 2.2 36 43 -9.1 15.6
14:10 1024 30.24 853 25.19 2.1 35.8 41 -9.7 14.5
14:15 1024 30.24 853 25.19 2 35.6 41 -9.8 14.3
14:20 1024 30.24 853 25.19 1.7 35 43 -9.6 14.8
14:25 1024 30.24 853 25.19 1.5 34.7 46 -9 15.9
14:30 1024 30.24 853 25.19 1.5 34.6 44 -9.5 14.9
14:35 1024 30.24 853 25.19 1.6 34.9 44 -9.5 14.9
14:40 1024 30.24 853 25.19 1.6 34.9 43 -9.6 14.6
14:45 1024 30.24 853 25.19 1.9 35.4 42 -9.7 14.5
14:50 1024 30.24 853 25.19 1.5 34.7 45 -9.2 15.4
14:55 1024 30.24 853 25.19 1.6 34.8 42 -10.1 13.9
15:00 1024 30.24 853 25.19 1.5 34.7 43 -9.9 14.2
15:05 1024 30.24 853 25.19 1.2 34.1 44 -9.7 14.5
15:10 1024 30.24 853 25.19 1.1 34 45 -9.6 14.7
15:15 1024 30.24 853 25.19 1.2 34.2 43 -9.9 14.2
15:20 1024 30.24 853 25.19 1.5 34.7 42 -10.1 13.8
15:25 1024 30.24 853 25.19 1.6 34.9 42 -9.9 14.1
15:30 1024 30.24 853 25.19 1.4 34.5 42 -10.1 13.8
15:35 1024 30.24 853 25.19 1.1 34 43 -10 14
15:40 1024 30.24 853 25.19 1 33.8 45 -9.7 14.5
15:45 1024 30.24 853 25.19 0.9 33.7 44 -9.9 14.1
15:50 1024 30.24 853 25.19 1.2 34.2 43 -10 13.9
15:55 1024 30.24 853 25.19 1.9 35.4 44 -9 15.8
16:00 1024 30.24 853 25.19 1.1 33.9 50 -8.3 17
16:05 1024 30.24 853 25.19 0.3 32.6 49 -9.2 15.4
16:10 1024 30.24 853 25.19 0.2 32.4 51 -8.8 16.2
16:15 1024 30.24 853 25.19 0.2 32.3 51 -8.8 16.2
16:20 1024 30.24 853 25.19 -0 32 49 -9.4 15.1
16:25 1024 30.24 853 25.19 -0.1 31.8 50 -9.4 15.1
16:30 1024 30.24 853 25.19 0.1 32.2 49 -9.4 15.1
16:35 1024 30.24 853 25.19 0.3 32.6 48 -9.3 15.2
16:40 1024 30.24 853 25.19 0.1 32.2 49 -9.3 15.2
16:45 1024 30.24 853 25.19 -0.1 31.9 50 -9.4 15.1
16:50 1024 30.24 853 25.19 -0.3 31.5 50 -9.5 15
16:55 1024 30.24 853 25.19 -0.2 31.7 49 -9.6 14.8
17:00 1024 30.24 853 25.19 -0.1 31.8 51 -9.1 15.6
17:05 1024 30.24 853 25.19 0.1 32.1 50 -9.2 15.4
17:10 1024 30.24 853 25.19 0.2 32.4 50 -9.1 15.7
17:15 1024 30.24 853 25.19 0.2 32.4 50 -9.2 15.5
17:20 1024 30.24 853 25.19 -0.4 31.3 51 -9.3 15.2
17:25 1024 30.24 853 25.19 -0.4 31.2 51 -9.3 15.3
17:30 1024 30.24 853 25.19 -0.3 31.4 51 -9.2 15.4
17:35 1024 30.24 853 25.19 -0.2 31.6 52 -9 15.7
17:40 1024 30.24 853 25.19 -0.3 31.5 52 -9 15.9
17:45 1024 30.24 853 25.19 -0.3 31.5 52 -9 15.8
17:50 1024 30.24 853 25.19 -0.3 31.5 52 -9.1 15.6
17:55 1024 30.24 853 25.19 -0.3 31.4 52 -9 15.7
18:00 1024 30.24 853 25.19 -0.4 31.3 53 -8.9 16
18:05 1024 30.24 853 25.19 -0.4 31.3 52 -9.2 15.4
18:10 1024 30.24 853 25.19 -0.5 31.1 54 -8.8 16.1
18:15 1024 30.24 853 25.19 -0.6 30.8 54 -8.9 15.9
18:20 1024 30.24 853 25.19 -0.9 30.4 56 -8.6 16.6
18:25 1024 30.24 853 25.19 -1.4 29.4 59 -8.3 17
18:30 1024 30.24 853 25.19 -1.7 28.9 61 -8.4 16.9
18:35 1024 30.24 853 25.19 -1.8 28.7 61 -8.4 16.9
18:40 1024 30.24 853 25.19 -1.8 28.8 61 -8.3 17
18:45 1024 30.24 853 25.19 -1.8 28.8 62 -8.2 17.3
18:50 1024 30.24 853 25.19 -1.9 28.6 63 -8.1 17.4
18:55 1024 30.24 853 25.19 -2.1 28.3 64 -8 17.6
19:00 1024 30.24 853 25.19 -2 28.4 63 -8.2 17.2
19:05 1024 30.24 853 25.19 -2.1 28.3 63 -8.1 17.3
19:10 1024 30.24 853 25.19 -2.1 28.2 61 -8.7 16.4
19:15 1024 30.24 853 25.19 -2.1 28.2 60 -8.8 16.1
19:20 1024 30.24 853 25.19 -2.2 28.1 61 -8.6 16.5
19:25 1024 30.24 853 25.19 -2.3 27.9 61 -8.9 15.9
19:30 1024 30.24 853 25.19 -2.4 27.7 62 -8.8 16.2
19:35 1024 30.24 853 25.19 -2.3 27.9 60 -9.1 15.6
19:40 1024 30.24 853 25.19 -2.1 28.3 61 -8.7 16.4
19:45 1024 30.24 853 25.19 -2 28.4 60 -8.8 16.2
19:50 1024 30.24 853 25.19 -2.1 28.3 61 -8.7 16.4
19:55 1024 30.24 853 25.19 -2.2 28 62 -8.6 16.5
20:00 1024 30.24 853 25.19 -2.2 28 62 -8.6 16.6
20:05 1024 30.24 853 25.19 -2.3 27.9 64 -8.2 17.2
20:10 1024 30.24 854 25.22 -2.3 27.9 65 -8 17.6
20:15 1024 30.24 854 25.22 -2.4 27.8 64 -8.3 17.1
20:20 1024 30.24 854 25.22 -2.3 27.9 64 -8.2 17.2
20:25 1024 30.24 854 25.22 -2 28.3 62 -8.3 17.1
20:30 1024 30.24 854 25.22 -1.9 28.6 61 -8.3 17
20:35 1024 30.24 854 25.22 -1.8 28.8 61 -8.4 16.8
20:40 1024 30.24 854 25.22 -1.8 28.8 62 -8.2 17.3
20:45 1024 30.24 854 25.22 -1.8 28.8 63 -7.9 17.7
20:50 1024 30.24 854 25.22 -1.8 28.7 61 -8.3 17.1
20:55 1024 30.24 854 25.22 -1.9 28.6 62 -8.1 17.3
21:00 1024 30.24 854 25.22 -1.9 28.6 62 -8.2 17.3
21:05 1024 30.24 854 25.22 -1.9 28.5 62 -8.2 17.2
21:10 1024 30.24 854 25.22 -1.9 28.5 63 -8 17.6
21:15 1025 30.27 854 25.22 -1.9 28.5 63 -8.1 17.4
21:20 1025 30.27 854 25.22 -2 28.5 63 -8.1 17.4
21:25 1025 30.27 854 25.22 -2 28.4 63 -8.1 17.4
21:30 1025 30.27 854 25.22 -2 28.4 62 -8.2 17.2
21:35 1025 30.27 854 25.22 -2 28.4 63 -8.2 17.3
21:40 1025 30.27 854 25.22 -2 28.3 63 -8.3 17.1
21:45 1025 30.27 854 25.22 -2 28.3 62 -8.3 17
21:50 1025 30.27 854 25.22 -2 28.3 63 -8.2 17.2
21:55 1025 30.27 854 25.22 -2.1 28.3 62 -8.3 17
22:00 1025 30.27 854 25.22 -2.1 28.3 63 -8.3 17.1
22:05 1025 30.27 854 25.22 -2.1 28.1 63 -8.2 17.2
22:10 1025 30.27 854 25.22 -2.2 28 63 -8.3 17
22:15 1025 30.27 854 25.22 -2.2 28 62 -8.6 16.5
22:20 1025 30.27 854 25.22 -2.2 28 61 -8.7 16.4
22:25 1025 30.27 854 25.22 -2.3 27.9 61 -8.8 16.2
22:30 1025 30.27 854 25.22 -2.3 27.8 62 -8.7 16.3
22:35 1025 30.27 854 25.22 -2.4 27.8 62 -8.7 16.3
22:40 1025 30.27 854 25.22 -2.4 27.7 61 -9 15.8
22:45 1025 30.27 854 25.22 -2.4 27.7 60 -9 15.7
22:50 1025 30.27 854 25.22 -2.4 27.7 61 -9 15.8
22:55 1025 30.27 854 25.22 -2.4 27.6 60 -9.1 15.7
23:00 1025 30.27 854 25.22 -2.4 27.6 61 -9 15.9
23:05 1025 30.27 854 25.22 -2.4 27.6 61 -8.9 15.9
23:10 1025 30.27 854 25.22 -2.4 27.7 61 -8.9 16
23:15 1025 30.27 854 25.22 -2.4 27.7 61 -8.9 16
23:20 1025 30.27 854 25.22 -2.4 27.6 62 -8.7 16.3
23:25 1025 30.27 854 25.22 -2.5 27.6 62 -8.8 16.2
23:30 1025 30.27 854 25.22 -2.5 27.6 62 -8.7 16.4
23:35 1025 30.27 854 25.22 -2.5 27.5 63 -8.7 16.3
23:40 1025 30.27 854 25.22 -2.5 27.5 62 -8.9 16
23:45 1025 30.27 854 25.22 -2.5 27.5 63 -8.6 16.6
23:50 1025 30.27 854 25.22 -2.6 27.4 64 -8.6 16.6
23:55 1025 30.27 854 25.22 -2.9 26.8 65 -8.7 16.4
24:00 1025 30.27 854 25.22 -3 26.6 65 -8.6 16.5